createdAt,value
2022-08-30T00:01:28.479Z,22.20
2022-08-30T00:03:55.627Z,22.20
2022-08-30T00:06:23.158Z,22.20
2022-08-30T00:08:53.131Z,22.20
2022-08-30T00:11:27.950Z,22.10
2022-08-30T00:13:58.178Z,22.10
2022-08-30T00:16:26.403Z,22.10
2022-08-30T00:18:53.829Z,22.00
2022-08-30T00:21:21.047Z,22.00
2022-08-30T00:23:47.765Z,21.90
2022-08-30T00:26:19.515Z,21.90
2022-08-30T00:28:48.576Z,21.80
2022-08-30T00:31:15.687Z,21.80
2022-08-30T00:33:43.055Z,21.80
2022-08-30T00:36:09.879Z,21.80
2022-08-30T00:38:38.892Z,21.80
2022-08-30T00:41:07.880Z,21.70
2022-08-30T00:43:38.613Z,21.70
2022-08-30T00:46:08.282Z,21.70
2022-08-30T00:48:38.869Z,21.60
2022-08-30T00:51:10.043Z,21.60
2022-08-30T00:53:42.340Z,21.60
2022-08-30T00:56:10.114Z,21.60
2022-08-30T00:58:42.742Z,21.60
2022-08-30T01:01:10.446Z,21.50
2022-08-30T01:03:38.704Z,21.50
2022-08-30T01:06:07.606Z,21.50
2022-08-30T01:08:36.930Z,21.50
2022-08-30T01:11:04.852Z,21.40
2022-08-30T01:13:34.235Z,21.40
2022-08-30T01:16:04.610Z,21.30
2022-08-30T01:18:32.077Z,21.20
2022-08-30T01:21:15.318Z,21.30
2022-08-30T01:23:44.140Z,21.20
2022-08-30T01:26:12.963Z,21.20
2022-08-30T01:28:44.139Z,21.20
2022-08-30T01:31:11.050Z,21.10
2022-08-30T01:33:38.440Z,21.10
2022-08-30T01:36:11.392Z,21.00
2022-08-30T01:38:56.821Z,21.00
2022-08-30T01:41:37.148Z,21.00
2022-08-30T01:44:08.615Z,20.90
2022-08-30T01:46:43.205Z,20.90
2022-08-30T01:49:14.899Z,20.90
2022-08-30T01:51:44.194Z,21.00
2022-08-30T01:54:11.266Z,20.90
2022-08-30T01:56:38.156Z,20.90
2022-08-30T01:59:05.616Z,20.90
2022-08-30T02:01:37.281Z,20.90
2022-08-30T02:04:04.542Z,20.90
2022-08-30T02:06:31.600Z,20.90
2022-08-30T02:08:59.330Z,20.90
2022-08-30T02:11:26.772Z,20.90
2022-08-30T02:13:53.554Z,20.80
2022-08-30T02:16:23.148Z,20.80
2022-08-30T02:18:51.866Z,20.80
2022-08-30T02:21:21.202Z,20.70
2022-08-30T02:23:47.940Z,20.70
2022-08-30T02:26:15.527Z,20.70
2022-08-30T02:28:49.657Z,20.70
2022-08-30T02:31:19.486Z,20.70
2022-08-30T02:33:50.134Z,20.80
2022-08-30T02:36:17.862Z,20.70
2022-08-30T02:38:47.300Z,20.80
2022-08-30T02:41:14.470Z,20.70
2022-08-30T02:43:41.315Z,20.70
2022-08-30T02:46:08.119Z,20.70
2022-08-30T02:48:34.939Z,20.70
2022-08-30T02:51:11.534Z,20.60
2022-08-30T02:53:42.010Z,20.60
2022-08-30T02:56:09.427Z,20.60
2022-08-30T02:58:38.947Z,20.70
2022-08-30T03:01:06.206Z,20.60
2022-08-30T03:03:33.734Z,20.60
2022-08-30T03:06:00.701Z,20.50
2022-08-30T03:08:27.402Z,20.50
2022-08-30T03:10:54.101Z,20.50
2022-08-30T03:13:21.126Z,20.50
2022-08-30T03:15:50.322Z,20.40
2022-08-30T03:18:19.306Z,20.50
2022-08-30T03:20:54.267Z,20.50
2022-08-30T03:23:22.527Z,20.50
2022-08-30T03:25:49.399Z,20.50
2022-08-30T03:28:18.233Z,20.40
2022-08-30T03:30:44.973Z,20.40
2022-08-30T03:33:11.650Z,20.40
2022-08-30T03:35:40.949Z,20.40
2022-08-30T03:38:09.804Z,20.40
2022-08-30T03:40:37.091Z,20.40
2022-08-30T03:43:04.950Z,20.40
2022-08-30T03:45:34.822Z,20.40
2022-08-30T03:48:04.057Z,20.40
2022-08-30T03:50:31.449Z,20.40
2022-08-30T03:53:01.368Z,20.40
2022-08-30T03:55:29.032Z,20.30
2022-08-30T03:57:56.299Z,20.30
2022-08-30T04:00:25.400Z,20.30
2022-08-30T04:02:52.145Z,20.30
2022-08-30T04:05:20.183Z,20.30
2022-08-30T04:07:46.999Z,20.30
2022-08-30T04:10:13.830Z,20.20
2022-08-30T04:12:40.606Z,20.30
2022-08-30T04:15:09.473Z,20.20
2022-08-30T04:17:36.328Z,20.20
2022-08-30T04:20:03.429Z,20.10
2022-08-30T04:22:30.096Z,20.20
2022-08-30T04:24:59.520Z,20.10
2022-08-30T04:27:26.290Z,20.10
2022-08-30T04:29:54.147Z,20.10
2022-08-30T04:32:23.018Z,20.10
2022-08-30T04:34:49.716Z,20.10
2022-08-30T04:37:16.780Z,20.10
2022-08-30T04:39:43.568Z,20.10
2022-08-30T04:42:11.430Z,20.10
2022-08-30T04:44:40.564Z,20.10
2022-08-30T04:47:10.036Z,20.10
2022-08-30T04:49:39.749Z,20.00
2022-08-30T04:52:06.574Z,20.00
2022-08-30T04:54:33.262Z,20.00
2022-08-30T04:57:00.886Z,20.00
2022-08-30T04:59:29.200Z,20.00
2022-08-30T05:01:55.918Z,19.90
2022-08-30T05:04:22.739Z,19.80
2022-08-30T05:06:49.529Z,19.80
2022-08-30T05:09:16.865Z,19.70
2022-08-30T05:11:44.053Z,19.70
2022-08-30T05:14:11.076Z,19.70
2022-08-30T05:16:38.039Z,19.70
2022-08-30T05:19:04.861Z,19.70
2022-08-30T05:21:33.827Z,19.70
2022-08-30T05:24:01.145Z,19.80
2022-08-30T05:26:31.380Z,19.80
2022-08-30T05:28:58.346Z,19.80
2022-08-30T05:31:32.295Z,19.80
2022-08-30T05:34:02.390Z,19.90
2022-08-30T05:36:31.095Z,19.90
2022-08-30T05:39:01.299Z,19.80
2022-08-30T05:41:28.260Z,19.80
2022-08-30T05:43:59.767Z,19.90
2022-08-30T05:46:29.698Z,19.90
2022-08-30T05:48:57.219Z,19.90
2022-08-30T05:51:28.734Z,19.80
2022-08-30T05:53:56.924Z,19.90
2022-08-30T05:56:33.434Z,19.80
2022-08-30T05:59:01.529Z,19.80
2022-08-30T06:01:37.907Z,19.80
2022-08-30T06:04:09.270Z,19.70
2022-08-30T06:06:40.084Z,19.80
2022-08-30T06:09:10.673Z,19.70
2022-08-30T06:11:37.827Z,19.80
2022-08-30T06:14:05.391Z,19.80
2022-08-30T06:16:32.747Z,19.80
2022-08-30T06:19:00.199Z,19.90
2022-08-30T06:21:32.408Z,19.90
2022-08-30T06:23:59.797Z,20.00
2022-08-30T06:26:28.403Z,20.10
2022-08-30T06:28:56.551Z,20.20
2022-08-30T06:31:26.280Z,20.30
2022-08-30T06:33:53.751Z,20.30
2022-08-30T06:36:23.015Z,20.40
2022-08-30T06:38:52.221Z,20.40
2022-08-30T06:41:23.836Z,20.40
2022-08-30T06:43:50.850Z,20.50
2022-08-30T06:46:24.967Z,20.60
2022-08-30T06:48:52.714Z,20.70
2022-08-30T06:51:29.661Z,20.80
2022-08-30T06:53:59.503Z,20.80
2022-08-30T06:56:27.611Z,20.90
2022-08-30T06:58:54.838Z,21.00
2022-08-30T07:01:24.856Z,21.00
2022-08-30T07:03:52.307Z,21.20
2022-08-30T07:06:19.797Z,21.30
2022-08-30T07:08:47.496Z,21.40
2022-08-30T07:11:17.280Z,21.50
2022-08-30T07:13:45.591Z,21.50
2022-08-30T07:16:14.827Z,21.70
2022-08-30T07:18:54.983Z,21.80
2022-08-30T07:21:32.124Z,21.90
2022-08-30T07:23:59.845Z,22.00
2022-08-30T07:26:37.226Z,22.20
2022-08-30T07:29:04.402Z,22.30
2022-08-30T07:31:34.404Z,22.30
2022-08-30T07:34:01.089Z,22.50
2022-08-30T07:36:27.991Z,22.50
2022-08-30T07:38:55.035Z,22.40
2022-08-30T07:41:28.523Z,22.50
2022-08-30T07:43:58.618Z,22.60
2022-08-30T07:46:25.871Z,22.70
2022-08-30T07:48:54.373Z,22.80
2022-08-30T07:51:23.960Z,22.90
2022-08-30T07:53:51.418Z,23.00
2022-08-30T07:56:18.648Z,23.10
2022-08-30T07:58:45.369Z,23.10
2022-08-30T08:01:15.510Z,23.20
2022-08-30T08:03:43.373Z,23.30
2022-08-30T08:06:12.831Z,23.40
2022-08-30T08:08:40.484Z,23.50
2022-08-30T08:11:16.094Z,23.70
2022-08-30T08:13:53.156Z,23.90
2022-08-30T08:16:25.001Z,24.00
2022-08-30T08:18:53.034Z,24.10
2022-08-30T08:21:20.906Z,24.20
2022-08-30T08:23:47.706Z,24.30
2022-08-30T08:26:14.504Z,24.30
2022-08-30T08:28:42.087Z,24.30
2022-08-30T08:31:21.494Z,24.40
2022-08-30T08:33:50.899Z,24.40
2022-08-30T08:36:18.511Z,24.50
2022-08-30T08:38:45.588Z,24.60
2022-08-30T08:41:29.630Z,24.70
2022-08-30T08:43:56.561Z,24.80
2022-08-30T08:46:33.884Z,24.90
2022-08-30T08:49:04.644Z,25.00
2022-08-30T08:51:53.484Z,25.10
2022-08-30T08:54:38.598Z,25.10
2022-08-30T08:57:05.717Z,25.30
2022-08-30T08:59:32.749Z,25.40
2022-08-30T09:02:05.218Z,25.40
2022-08-30T09:04:37.671Z,25.50
2022-08-30T09:07:19.526Z,25.70
2022-08-30T09:09:46.399Z,25.80
2022-08-30T09:12:15.396Z,25.90
2022-08-30T09:14:47.958Z,26.00
2022-08-30T09:17:17.335Z,26.10
2022-08-30T09:19:58.709Z,26.30
2022-08-30T09:22:30.906Z,26.50
2022-08-30T09:25:22.099Z,26.80
2022-08-30T09:27:52.815Z,27.00
2022-08-30T09:30:29.355Z,27.10
2022-08-30T09:32:58.975Z,27.20
2022-08-30T09:35:40.792Z,27.30
2022-08-30T09:38:13.010Z,27.30
2022-08-30T09:40:40.286Z,27.30
2022-08-30T09:43:34.667Z,27.40
2022-08-30T09:46:10.809Z,27.50
2022-08-30T09:48:47.372Z,27.60
2022-08-30T09:51:42.459Z,27.80
2022-08-30T09:54:26.474Z,28.00
2022-08-30T09:57:34.449Z,28.10
2022-08-30T10:00:23.004Z,28.10
2022-08-30T10:03:30.238Z,28.20
2022-08-30T10:06:24.243Z,28.40
2022-08-30T10:09:00.187Z,28.40
2022-08-30T10:11:43.883Z,28.60
2022-08-30T10:14:22.714Z,28.70
2022-08-30T10:16:55.012Z,28.90
2022-08-30T10:20:17.135Z,28.90
2022-08-30T10:22:58.656Z,29.20
2022-08-30T10:25:37.651Z,29.50
2022-08-30T10:28:14.504Z,29.70
2022-08-30T10:30:47.612Z,30.00
2022-08-30T10:33:25.483Z,30.40
2022-08-30T10:36:02.584Z,30.80
2022-08-30T10:38:31.438Z,31.10
2022-08-30T10:41:31.393Z,31.40
2022-08-30T10:44:01.267Z,31.40
2022-08-30T10:46:51.828Z,31.60
2022-08-30T10:49:28.335Z,31.60
2022-08-30T10:52:18.616Z,31.80
2022-08-30T10:54:54.593Z,31.70
2022-08-30T10:57:21.397Z,31.80
2022-08-30T11:00:24.382Z,31.90
2022-08-30T11:03:15.877Z,32.00
2022-08-30T11:06:14.155Z,32.10
2022-08-30T11:08:52.640Z,32.30
2022-08-30T11:11:28.252Z,32.50
2022-08-30T11:14:05.856Z,32.60
2022-08-30T11:16:42.314Z,32.70
2022-08-30T11:19:40.007Z,32.80
2022-08-30T11:22:21.289Z,33.00
2022-08-30T11:25:09.778Z,33.00
2022-08-30T11:27:41.509Z,33.10
2022-08-30T11:30:29.353Z,33.00
2022-08-30T11:33:25.146Z,33.00
2022-08-30T11:35:53.671Z,33.10
2022-08-30T11:38:26.437Z,33.20
2022-08-30T11:41:01.638Z,33.20
2022-08-30T11:43:36.895Z,33.00
2022-08-30T11:46:24.252Z,33.00
2022-08-30T11:49:19.523Z,32.80
2022-08-30T11:52:28.051Z,32.60
2022-08-30T11:55:10.262Z,32.50
2022-08-30T11:57:49.723Z,32.50
2022-08-30T12:00:36.694Z,32.50
2022-08-30T12:03:31.046Z,32.60
2022-08-30T12:06:01.474Z,32.80
2022-08-30T12:08:37.314Z,32.90
2022-08-30T12:11:12.073Z,32.90
2022-08-30T12:13:44.926Z,33.00
2022-08-30T12:16:57.891Z,33.20
2022-08-30T12:19:26.597Z,33.40
2022-08-30T12:21:58.294Z,33.40
2022-08-30T12:24:40.185Z,33.50
2022-08-30T12:27:32.672Z,33.60
2022-08-30T12:30:08.259Z,33.80
2022-08-30T12:32:50.797Z,33.80
2022-08-30T12:35:25.918Z,33.60
2022-08-30T12:38:02.032Z,33.40
2022-08-30T12:40:31.631Z,33.40
2022-08-30T12:43:04.654Z,33.50
2022-08-30T12:45:44.070Z,33.40
2022-08-30T12:48:15.584Z,33.50
2022-08-30T12:50:51.930Z,33.40
2022-08-30T12:53:41.972Z,33.30
2022-08-30T12:56:12.821Z,33.40
2022-08-30T12:58:43.383Z,33.50
2022-08-30T13:01:35.680Z,33.70
2022-08-30T13:04:26.823Z,33.80
2022-08-30T13:06:59.133Z,33.80
2022-08-30T13:09:41.293Z,33.80
2022-08-30T13:12:23.138Z,33.80
2022-08-30T13:14:50.205Z,33.90
2022-08-30T13:17:19.313Z,34.00
2022-08-30T13:19:57.991Z,34.10
2022-08-30T13:22:39.468Z,33.90
2022-08-30T13:25:08.351Z,33.90
2022-08-30T13:27:38.941Z,34.00
2022-08-30T13:30:16.031Z,34.00
2022-08-30T13:32:43.538Z,34.00
2022-08-30T13:35:13.690Z,34.10
2022-08-30T13:37:49.858Z,34.20
2022-08-30T13:40:21.276Z,34.20
2022-08-30T13:42:48.352Z,34.10
2022-08-30T13:48:06.037Z,34.20
2022-08-30T13:50:35.447Z,34.30
2022-08-30T13:53:04.494Z,34.40
2022-08-30T13:55:31.440Z,34.50
2022-08-30T13:58:00.529Z,34.50
2022-08-30T14:00:27.605Z,34.30
2022-08-30T14:02:59.965Z,34.00
2022-08-30T14:11:12.831Z,33.70
2022-08-30T14:14:14.634Z,33.70
2022-08-30T14:16:28.617Z,33.70
2022-08-30T14:18:56.422Z,33.70
2022-08-30T14:21:24.795Z,33.70
2022-08-30T14:23:52.961Z,33.70
2022-08-30T14:26:33.828Z,33.80
2022-08-30T14:29:06.048Z,33.80
2022-08-30T14:31:39.455Z,33.80
2022-08-30T14:34:07.945Z,33.80
2022-08-30T14:36:36.586Z,33.80
2022-08-30T14:39:08.662Z,33.90
2022-08-30T14:41:43.426Z,33.90
2022-08-30T14:44:11.489Z,33.90
2022-08-30T14:46:38.314Z,33.90
2022-08-30T14:49:05.905Z,33.90
2022-08-30T14:51:32.659Z,34.00
2022-08-30T14:54:02.833Z,34.00
2022-08-30T14:56:32.524Z,34.00
2022-08-30T14:59:02.576Z,34.10
2022-08-30T15:01:31.184Z,34.10
2022-08-30T15:03:58.931Z,34.20
2022-08-30T15:06:27.449Z,34.20
2022-08-30T15:08:57.496Z,34.10
2022-08-30T15:11:29.564Z,34.20
2022-08-30T15:13:56.463Z,34.30
2022-08-30T15:16:33.433Z,34.30
2022-08-30T15:19:00.647Z,34.20
2022-08-30T15:21:48.428Z,34.20
2022-08-30T15:24:29.307Z,34.20
2022-08-30T15:26:56.797Z,34.00
2022-08-30T15:29:25.727Z,33.80
2022-08-30T15:31:53.191Z,33.80
2022-08-30T15:34:26.237Z,34.00
2022-08-30T15:36:55.323Z,34.10
2022-08-30T15:39:22.073Z,34.10
2022-08-30T15:41:58.647Z,34.00
2022-08-30T15:44:27.670Z,33.80
2022-08-30T15:46:56.976Z,33.60
2022-08-30T15:49:24.400Z,33.40
2022-08-30T15:51:54.010Z,33.20
2022-08-30T15:54:22.715Z,33.10
2022-08-30T15:56:58.936Z,33.20
2022-08-30T15:59:32.730Z,33.20
2022-08-30T16:01:59.691Z,33.00
2022-08-30T16:04:29.098Z,32.90
2022-08-30T16:06:55.868Z,33.10
2022-08-30T16:09:26.541Z,33.20
2022-08-30T16:11:59.124Z,33.20
2022-08-30T16:14:25.900Z,33.10
2022-08-30T16:16:57.908Z,33.00
2022-08-30T16:19:25.334Z,33.10
2022-08-30T16:21:52.281Z,33.30
2022-08-30T16:24:22.764Z,33.60
2022-08-30T16:26:50.248Z,33.80
2022-08-30T16:29:16.979Z,34.00
2022-08-30T16:31:47.434Z,34.10
2022-08-30T16:34:16.594Z,34.10
2022-08-30T16:36:43.628Z,34.10
2022-08-30T16:39:13.611Z,34.10
2022-08-30T16:41:41.389Z,33.80
2022-08-30T16:44:08.958Z,33.60
2022-08-30T16:46:43.325Z,33.20
2022-08-30T16:49:19.395Z,32.90
2022-08-30T16:51:46.356Z,32.60
2022-08-30T16:54:13.930Z,32.50
2022-08-30T16:56:40.603Z,32.40
2022-08-30T16:59:11.150Z,32.20
2022-08-30T17:01:39.075Z,32.10
2022-08-30T17:04:08.050Z,31.90
2022-08-30T17:06:35.732Z,31.80
2022-08-30T17:09:03.715Z,31.70
2022-08-30T17:11:32.051Z,31.60
2022-08-30T17:13:58.791Z,31.40
2022-08-30T17:16:30.270Z,31.30
2022-08-30T17:19:01.409Z,31.10
2022-08-30T17:21:33.236Z,31.00
2022-08-30T17:24:02.353Z,30.80
2022-08-30T17:26:34.635Z,30.60
2022-08-30T17:29:02.815Z,30.50
2022-08-30T17:31:30.840Z,30.40
2022-08-30T17:34:03.488Z,30.30
2022-08-30T17:36:36.670Z,30.10
2022-08-30T17:39:11.450Z,30.00
2022-08-30T17:41:43.377Z,29.90
2022-08-30T17:44:16.447Z,29.80
2022-08-30T17:46:43.446Z,29.70
2022-08-30T17:49:11.594Z,29.70
2022-08-30T17:51:41.846Z,29.50
2022-08-30T17:54:09.845Z,29.40
2022-08-30T17:56:36.551Z,29.20
2022-08-30T17:59:08.097Z,29.30
2022-08-30T18:01:37.028Z,29.20
2022-08-30T18:04:05.901Z,29.10
2022-08-30T18:06:33.334Z,29.00
2022-08-30T18:09:03.987Z,28.90
2022-08-30T18:11:35.928Z,28.80
2022-08-30T18:14:03.719Z,28.80
2022-08-30T18:16:33.272Z,28.70
2022-08-30T18:19:03.588Z,28.60
2022-08-30T18:21:30.594Z,28.50
2022-08-30T18:23:57.440Z,28.40
2022-08-30T18:26:24.787Z,28.40
2022-08-30T18:28:52.141Z,28.30
2022-08-30T18:31:18.843Z,28.30
2022-08-30T18:33:49.306Z,28.20
2022-08-30T18:36:19.181Z,28.10
2022-08-30T18:38:46.047Z,28.00
2022-08-30T18:41:14.458Z,27.80
2022-08-30T18:43:44.969Z,27.80
2022-08-30T18:46:14.075Z,27.80
2022-08-30T18:48:41.362Z,27.70
2022-08-30T18:51:17.119Z,27.70
2022-08-30T18:53:44.578Z,27.60
2022-08-30T18:56:16.644Z,27.60
2022-08-30T18:58:44.952Z,27.50
2022-08-30T19:01:12.916Z,27.50
2022-08-30T19:03:40.865Z,27.50
2022-08-30T19:06:11.620Z,27.50
2022-08-30T19:08:40.198Z,27.40
2022-08-30T19:11:10.207Z,27.30
2022-08-30T19:13:39.893Z,27.30
2022-08-30T19:16:07.881Z,27.20
2022-08-30T19:18:38.889Z,27.20
2022-08-30T19:21:06.033Z,27.10
2022-08-30T19:23:42.480Z,27.10
2022-08-30T19:26:10.940Z,27.00
2022-08-30T19:28:38.250Z,27.00
2022-08-30T19:31:06.473Z,26.90
2022-08-30T19:33:33.918Z,26.90
2022-08-30T19:36:05.367Z,26.90
2022-08-30T19:38:35.423Z,26.90
2022-08-30T19:41:05.728Z,26.90
2022-08-30T19:43:32.547Z,26.80
2022-08-30T19:46:00.269Z,26.80
2022-08-30T19:48:32.809Z,26.80
2022-08-30T19:51:06.573Z,26.80
2022-08-30T19:53:34.817Z,26.80
2022-08-30T19:56:01.639Z,26.70
2022-08-30T19:58:30.293Z,26.70
2022-08-30T20:01:01.145Z,26.70
2022-08-30T20:03:40.330Z,26.60
2022-08-30T20:06:08.180Z,26.60
2022-08-30T20:08:36.627Z,26.60
2022-08-30T20:11:07.092Z,26.50
2022-08-30T20:13:35.990Z,26.50
2022-08-30T20:16:03.136Z,26.50
2022-08-30T20:18:29.904Z,26.40
2022-08-30T20:20:56.957Z,26.40
2022-08-30T20:23:25.428Z,26.30
2022-08-30T20:25:54.349Z,26.20
2022-08-30T20:28:21.335Z,26.20
2022-08-30T20:30:51.397Z,26.20
2022-08-30T20:33:19.884Z,26.10
2022-08-30T20:35:50.032Z,26.10
2022-08-30T20:38:21.393Z,26.10
2022-08-30T20:40:50.424Z,26.10
2022-08-30T20:43:18.947Z,26.10
2022-08-30T20:45:46.255Z,26.00
2022-08-30T20:48:13.804Z,26.00
2022-08-30T20:50:41.925Z,26.00
2022-08-30T20:53:09.114Z,26.00
2022-08-30T20:55:39.919Z,26.00
2022-08-30T20:58:06.606Z,26.00
2022-08-30T21:00:35.974Z,26.00
2022-08-30T21:03:03.497Z,25.90
2022-08-30T21:05:44.395Z,25.90
2022-08-30T21:08:11.248Z,25.90
2022-08-30T21:10:37.944Z,25.80
2022-08-30T21:13:06.786Z,25.80
2022-08-30T21:15:37.763Z,25.80
2022-08-30T21:18:05.003Z,25.80
2022-08-30T21:20:32.676Z,25.80
2022-08-30T21:22:59.321Z,25.70
2022-08-30T21:25:26.088Z,25.70
2022-08-30T21:27:53.738Z,25.70
2022-08-30T21:30:20.561Z,25.70
2022-08-30T21:32:47.327Z,25.70
2022-08-30T21:35:32.501Z,25.70
2022-08-30T21:38:04.243Z,25.70
2022-08-30T21:40:30.972Z,25.60
2022-08-30T21:42:58.956Z,25.60
2022-08-30T21:45:27.254Z,25.60
2022-08-30T21:47:53.946Z,25.60
2022-08-30T21:50:20.607Z,25.60
2022-08-30T21:52:47.308Z,25.60
2022-08-30T21:55:13.982Z,25.50
2022-08-30T21:57:40.647Z,25.50
2022-08-30T22:00:11.437Z,25.50
2022-08-30T22:02:40.786Z,25.50
2022-08-30T22:05:07.792Z,25.50
2022-08-30T22:07:37.233Z,25.50
2022-08-30T22:10:10.403Z,25.40
2022-08-30T22:12:37.523Z,25.40
2022-08-30T22:15:05.682Z,25.40
2022-08-30T22:17:32.619Z,25.40
2022-08-30T22:19:59.294Z,25.40
2022-08-30T22:22:26.035Z,25.30
2022-08-30T22:24:54.938Z,25.30
2022-08-30T22:27:21.785Z,25.30
2022-08-30T22:29:50.648Z,25.30
2022-08-30T22:32:19.979Z,25.30
2022-08-30T22:34:50.081Z,25.30
2022-08-30T22:37:16.970Z,25.30
2022-08-30T22:39:43.675Z,25.20
2022-08-30T22:42:10.443Z,25.20
2022-08-30T22:44:37.187Z,25.20
2022-08-30T22:47:04.000Z,25.20
2022-08-30T22:49:33.209Z,25.20
2022-08-30T22:51:59.930Z,25.20
2022-08-30T22:54:26.624Z,25.20
2022-08-30T22:56:53.383Z,25.20
2022-08-30T22:59:20.048Z,25.10
2022-08-30T23:01:49.217Z,25.10
2022-08-30T23:04:18.499Z,25.10
2022-08-30T23:06:49.828Z,25.10
2022-08-30T23:09:17.457Z,25.00
2022-08-30T23:11:44.216Z,25.00
2022-08-30T23:14:10.891Z,25.00
2022-08-30T23:16:37.800Z,25.00
2022-08-30T23:19:07.210Z,25.00
2022-08-30T23:21:33.946Z,24.90
2022-08-30T23:24:19.487Z,24.90
2022-08-30T23:27:05.481Z,24.80
2022-08-30T23:29:53.464Z,24.70
2022-08-30T23:32:39.461Z,24.60
2022-08-30T23:35:30.534Z,24.50
2022-08-30T23:38:21.164Z,24.30
2022-08-30T23:41:06.556Z,24.20
2022-08-30T23:43:52.160Z,24.10
2022-08-30T23:46:40.010Z,23.90
2022-08-30T23:49:27.523Z,23.70
2022-08-30T23:52:15.211Z,23.40
2022-08-30T23:55:00.384Z,23.20
2022-08-30T23:57:46.092Z,22.90
